This is the latest recevied weather packets stored in our database for station/object DN9EM-1. If no packets are shown the sender has not sent any weather packets the latest 10 day(s).
| Time | Temp. | Humidity | Pressure | Rain* | Wind** | Luminosity | Snow |
|---|---|---|---|---|---|---|---|
| 1777791934 | 16.67° C | 84% | 1013.8 hPa | 0 mm | - | - | - |
| 1777791331 | 16.67° C | 85% | 1013.9 hPa | 0 mm | - | - | - |
| 1777790729 | 16.67° C | 84% | 1013.9 hPa | 0 mm | - | - | - |
| 1777790126 | 16.67° C | 82% | 1014 hPa | 0 mm | - | - | - |
| 1777789523 | 17.78° C | 80% | 1014 hPa | 0 mm | - | - | - |
| 1777788921 | 17.22° C | 80% | 1014.1 hPa | 0 mm | - | - | - |
| 1777788318 | 16.67° C | 82% | 1014.1 hPa | 0 mm | - | - | - |
| 1777787715 | 16.11° C | 84% | 1014 hPa | 0 mm | - | - | - |
| 1777787173 | 15° C | 88% | 1014 hPa | 0 mm | - | - | - |
| 1777786571 | 14.44° C | 91% | 1014.1 hPa | 0 mm | - | - | - |
| 1777785968 | 13.89° C | 92% | 1014.1 hPa | 0 mm | - | - | - |
| 1777785366 | 12.78° C | 92% | 1014.1 hPa | 0 mm | - | - | - |
| 1777784763 | 12.78° C | 92% | 1013.9 hPa | 0.25 mm | - | - | - |
| 1777784160 | 12.78° C | 92% | 1014.1 hPa | 0.25 mm | - | - | - |
| 1777783558 | 12.78° C | 92% | 1014.1 hPa | 0.25 mm | - | - | - |
| 1777782955 | 12.78° C | 92% | 1014.1 hPa | 0.25 mm | - | - | - |
| 1777782353 | 12.78° C | 92% | 1014.1 hPa | 0.25 mm | - | - | - |
| 1777781750 | 12.78° C | 92% | 1014 hPa | 0.25 mm | - | - | - |
| 1777781148 | 12.78° C | 92% | 1014 hPa | 0 mm | - | - | - |
| 1777780545 | 12.78° C | 92% | 1014.1 hPa | 0 mm | - | - | - |
| 1777779943 | 12.78° C | 92% | 1014 hPa | 0 mm | - | - | - |
| 1777779340 | 12.78° C | 92% | 1014 hPa | 0 mm | - | - | - |
| 1777778737 | 13.33° C | 92% | 1014.1 hPa | 0 mm | - | - | - |
| 1777778135 | 13.33° C | 92% | 1014 hPa | 0 mm | - | - | - |
| 1777777532 | 13.33° C | 92% | 1014.2 hPa | 0 mm | - | - | - |
* Rain latest hour (hover to see other rain measurements)
** Current wind speed in m/s (hover to see current wind gust speed)